sensor_id;sensor_type;location;lat;lon;timestamp;temperature;humidity
24472;DHT22;12636;50.852;5.676;2024-03-17T00:00:30;6.20;99.90
24472;DHT22;12636;50.852;5.676;2024-03-17T00:02:56;6.20;99.90
24472;DHT22;12636;50.852;5.676;2024-03-17T00:05:24;6.20;99.90
24472;DHT22;12636;50.852;5.676;2024-03-17T00:07:50;6.20;99.90
24472;DHT22;12636;50.852;5.676;2024-03-17T00:10:17;6.30;99.90
24472;DHT22;12636;50.852;5.676;2024-03-17T00:12:43;6.40;99.90
24472;DHT22;12636;50.852;5.676;2024-03-17T00:15:10;6.40;99.90
24472;DHT22;12636;50.852;5.676;2024-03-17T00:17:36;6.40;99.90
24472;DHT22;12636;50.852;5.676;2024-03-17T00:20:03;6.30;99.90
24472;DHT22;12636;50.852;5.676;2024-03-17T00:22:31;6.30;99.90
24472;DHT22;12636;50.852;5.676;2024-03-17T00:25:02;6.30;99.90
24472;DHT22;12636;50.852;5.676;2024-03-17T00:27:30;6.40;99.90
24472;DHT22;12636;50.852;5.676;2024-03-17T00:29:55;6.40;99.90
24472;DHT22;12636;50.852;5.676;2024-03-17T00:32:22;6.50;99.90
24472;DHT22;12636;50.852;5.676;2024-03-17T00:34:49;6.40;99.90
24472;DHT22;12636;50.852;5.676;2024-03-17T00:37:16;6.40;99.90
24472;DHT22;12636;50.852;5.676;2024-03-17T00:39:44;6.30;99.90
24472;DHT22;12636;50.852;5.676;2024-03-17T00:42:11;6.20;99.90
24472;DHT22;12636;50.852;5.676;2024-03-17T00:44:37;6.30;99.90
24472;DHT22;12636;50.852;5.676;2024-03-17T00:47:04;6.20;99.90
24472;DHT22;12636;50.852;5.676;2024-03-17T00:49:30;6.20;99.90
24472;DHT22;12636;50.852;5.676;2024-03-17T00:51:57;6.20;99.90
24472;DHT22;12636;50.852;5.676;2024-03-17T00:54:23;6.20;99.90
24472;DHT22;12636;50.852;5.676;2024-03-17T00:56:52;6.30;99.90
24472;DHT22;12636;50.852;5.676;2024-03-17T00:59:18;6.30;99.90
24472;DHT22;12636;50.852;5.676;2024-03-17T01:01:44;6.30;99.90
24472;DHT22;12636;50.852;5.676;2024-03-17T01:04:10;6.40;99.90
24472;DHT22;12636;50.852;5.676;2024-03-17T01:06:37;6.30;99.90
24472;DHT22;12636;50.852;5.676;2024-03-17T01:09:06;6.20;99.90
24472;DHT22;12636;50.852;5.676;2024-03-17T01:11:33;6.20;99.90
24472;DHT22;12636;50.852;5.676;2024-03-17T01:14:00;6.10;99.90
24472;DHT22;12636;50.852;5.676;2024-03-17T01:16:27;6.10;99.90
24472;DHT22;12636;50.852;5.676;2024-03-17T01:18:53;6.00;99.90
24472;DHT22;12636;50.852;5.676;2024-03-17T01:21:20;5.90;99.90
24472;DHT22;12636;50.852;5.676;2024-03-17T01:23:47;5.90;99.90
24472;DHT22;12636;50.852;5.676;2024-03-17T01:26:14;5.90;99.90
24472;DHT22;12636;50.852;5.676;2024-03-17T01:28:40;5.90;99.90
24472;DHT22;12636;50.852;5.676;2024-03-17T01:31:08;5.90;99.90
24472;DHT22;12636;50.852;5.676;2024-03-17T01:33:35;5.80;99.90
24472;DHT22;12636;50.852;5.676;2024-03-17T01:36:02;5.80;99.90
24472;DHT22;12636;50.852;5.676;2024-03-17T01:38:27;5.80;99.90
24472;DHT22;12636;50.852;5.676;2024-03-17T01:40:54;5.70;99.90
24472;DHT22;12636;50.852;5.676;2024-03-17T01:43:20;5.60;99.90
24472;DHT22;12636;50.852;5.676;2024-03-17T01:45:47;5.60;99.90
24472;DHT22;12636;50.852;5.676;2024-03-17T01:48:14;5.70;99.90
24472;DHT22;12636;50.852;5.676;2024-03-17T01:50:42;5.70;99.90
24472;DHT22;12636;50.852;5.676;2024-03-17T01:53:10;5.70;99.90
24472;DHT22;12636;50.852;5.676;2024-03-17T01:55:38;5.80;99.90
24472;DHT22;12636;50.852;5.676;2024-03-17T01:58:05;5.70;99.90
24472;DHT22;12636;50.852;5.676;2024-03-17T02:00:34;5.70;99.90
24472;DHT22;12636;50.852;5.676;2024-03-17T02:03:02;5.70;99.90
24472;DHT22;12636;50.852;5.676;2024-03-17T02:05:30;5.60;99.90
24472;DHT22;12636;50.852;5.676;2024-03-17T02:07:56;5.70;99.90
24472;DHT22;12636;50.852;5.676;2024-03-17T02:10:23;5.80;99.90
24472;DHT22;12636;50.852;5.676;2024-03-17T02:12:49;5.80;99.90
24472;DHT22;12636;50.852;5.676;2024-03-17T02:15:15;5.90;99.90
24472;DHT22;12636;50.852;5.676;2024-03-17T02:17:41;5.90;99.90
24472;DHT22;12636;50.852;5.676;2024-03-17T02:20:09;6.00;99.90
24472;DHT22;12636;50.852;5.676;2024-03-17T02:22:38;6.10;99.90
24472;DHT22;12636;50.852;5.676;2024-03-17T02:25:05;6.10;99.90
24472;DHT22;12636;50.852;5.676;2024-03-17T02:27:33;6.10;99.90
24472;DHT22;12636;50.852;5.676;2024-03-17T02:30:00;6.20;99.90
24472;DHT22;12636;50.852;5.676;2024-03-17T02:32:26;6.20;99.90
24472;DHT22;12636;50.852;5.676;2024-03-17T02:34:53;6.20;99.90
24472;DHT22;12636;50.852;5.676;2024-03-17T02:37:20;6.20;99.90
24472;DHT22;12636;50.852;5.676;2024-03-17T02:39:47;6.20;99.90
24472;DHT22;12636;50.852;5.676;2024-03-17T02:42:14;6.20;99.90
24472;DHT22;12636;50.852;5.676;2024-03-17T02:44:41;6.10;99.90
24472;DHT22;12636;50.852;5.676;2024-03-17T02:47:08;6.20;99.90
24472;DHT22;12636;50.852;5.676;2024-03-17T02:49:35;6.30;99.90
24472;DHT22;12636;50.852;5.676;2024-03-17T02:52:05;6.40;99.90
24472;DHT22;12636;50.852;5.676;2024-03-17T02:54:32;6.30;99.90
24472;DHT22;12636;50.852;5.676;2024-03-17T02:57:02;6.40;99.90
24472;DHT22;12636;50.852;5.676;2024-03-17T02:59:29;6.50;99.90
24472;DHT22;12636;50.852;5.676;2024-03-17T03:01:56;6.60;99.90
24472;DHT22;12636;50.852;5.676;2024-03-17T03:04:23;6.60;99.90
24472;DHT22;12636;50.852;5.676;2024-03-17T03:06:50;6.60;99.90
24472;DHT22;12636;50.852;5.676;2024-03-17T03:09:17;6.60;99.90
24472;DHT22;12636;50.852;5.676;2024-03-17T03:11:51;6.60;99.90
24472;DHT22;12636;50.852;5.676;2024-03-17T03:14:20;6.70;99.90
24472;DHT22;12636;50.852;5.676;2024-03-17T03:16:47;6.70;99.90
24472;DHT22;12636;50.852;5.676;2024-03-17T03:19:14;6.70;99.90
24472;DHT22;12636;50.852;5.676;2024-03-17T03:21:41;6.70;99.90
24472;DHT22;12636;50.852;5.676;2024-03-17T03:24:08;6.80;99.90
24472;DHT22;12636;50.852;5.676;2024-03-17T03:26:35;6.80;99.90
24472;DHT22;12636;50.852;5.676;2024-03-17T03:29:02;6.80;99.90
24472;DHT22;12636;50.852;5.676;2024-03-17T03:31:31;6.80;99.90
24472;DHT22;12636;50.852;5.676;2024-03-17T03:33:58;6.80;99.90
24472;DHT22;12636;50.852;5.676;2024-03-17T03:36:27;6.70;99.90
24472;DHT22;12636;50.852;5.676;2024-03-17T03:38:54;6.80;99.90
24472;DHT22;12636;50.852;5.676;2024-03-17T03:41:22;6.80;99.90
24472;DHT22;12636;50.852;5.676;2024-03-17T03:43:49;6.70;99.90
24472;DHT22;12636;50.852;5.676;2024-03-17T03:46:16;6.60;99.90
24472;DHT22;12636;50.852;5.676;2024-03-17T03:48:44;6.60;99.90
24472;DHT22;12636;50.852;5.676;2024-03-17T03:51:11;6.50;99.90
24472;DHT22;12636;50.852;5.676;2024-03-17T03:53:38;6.60;99.90
24472;DHT22;12636;50.852;5.676;2024-03-17T03:56:05;6.70;99.90
24472;DHT22;12636;50.852;5.676;2024-03-17T03:58:33;6.60;99.90
24472;DHT22;12636;50.852;5.676;2024-03-17T04:01:00;6.50;99.90
24472;DHT22;12636;50.852;5.676;2024-03-17T04:03:27;6.40;99.90
24472;DHT22;12636;50.852;5.676;2024-03-17T04:06:01;6.30;99.90
24472;DHT22;12636;50.852;5.676;2024-03-17T04:08:29;6.30;99.90
24472;DHT22;12636;50.852;5.676;2024-03-17T04:10:56;6.30;99.90
24472;DHT22;12636;50.852;5.676;2024-03-17T04:13:23;6.10;99.90
24472;DHT22;12636;50.852;5.676;2024-03-17T04:15:50;6.10;99.90
24472;DHT22;12636;50.852;5.676;2024-03-17T04:18:22;6.10;99.90
24472;DHT22;12636;50.852;5.676;2024-03-17T04:20:50;6.00;99.90
24472;DHT22;12636;50.852;5.676;2024-03-17T04:23:19;5.90;99.90
24472;DHT22;12636;50.852;5.676;2024-03-17T04:25:47;5.90;99.90
24472;DHT22;12636;50.852;5.676;2024-03-17T04:28:14;5.90;99.90
24472;DHT22;12636;50.852;5.676;2024-03-17T04:30:41;5.90;99.90
24472;DHT22;12636;50.852;5.676;2024-03-17T04:33:08;5.80;99.90
24472;DHT22;12636;50.852;5.676;2024-03-17T04:35:35;5.80;99.90
24472;DHT22;12636;50.852;5.676;2024-03-17T04:38:02;5.90;99.90
24472;DHT22;12636;50.852;5.676;2024-03-17T04:40:31;5.80;99.90
24472;DHT22;12636;50.852;5.676;2024-03-17T04:42:58;5.80;99.90
24472;DHT22;12636;50.852;5.676;2024-03-17T04:45:25;5.80;99.90
24472;DHT22;12636;50.852;5.676;2024-03-17T04:47:51;5.80;99.90
24472;DHT22;12636;50.852;5.676;2024-03-17T04:50:18;5.80;99.90
24472;DHT22;12636;50.852;5.676;2024-03-17T04:52:46;5.70;99.90
24472;DHT22;12636;50.852;5.676;2024-03-17T04:55:14;5.80;99.90
24472;DHT22;12636;50.852;5.676;2024-03-17T04:57:43;5.80;99.90
24472;DHT22;12636;50.852;5.676;2024-03-17T05:00:11;5.80;99.90
24472;DHT22;12636;50.852;5.676;2024-03-17T05:02:39;5.70;99.90
24472;DHT22;12636;50.852;5.676;2024-03-17T05:05:06;5.60;99.90
24472;DHT22;12636;50.852;5.676;2024-03-17T05:07:33;5.60;99.90
24472;DHT22;12636;50.852;5.676;2024-03-17T05:10:00;5.60;99.90
24472;DHT22;12636;50.852;5.676;2024-03-17T05:12:27;5.70;99.90
24472;DHT22;12636;50.852;5.676;2024-03-17T05:14:55;5.70;99.90
24472;DHT22;12636;50.852;5.676;2024-03-17T05:17:22;5.70;99.90
24472;DHT22;12636;50.852;5.676;2024-03-17T05:19:49;5.70;99.90
24472;DHT22;12636;50.852;5.676;2024-03-17T05:22:16;5.80;99.90
24472;DHT22;12636;50.852;5.676;2024-03-17T05:24:43;6.00;99.90
24472;DHT22;12636;50.852;5.676;2024-03-17T05:27:10;6.00;99.90
24472;DHT22;12636;50.852;5.676;2024-03-17T05:29:37;6.00;99.90
24472;DHT22;12636;50.852;5.676;2024-03-17T05:32:05;6.00;99.90
24472;DHT22;12636;50.852;5.676;2024-03-17T05:34:32;6.10;99.90
24472;DHT22;12636;50.852;5.676;2024-03-17T05:36:59;6.10;99.90
24472;DHT22;12636;50.852;5.676;2024-03-17T05:39:27;6.10;99.90
24472;DHT22;12636;50.852;5.676;2024-03-17T05:41:54;6.10;99.90
24472;DHT22;12636;50.852;5.676;2024-03-17T05:44:20;6.00;99.90
24472;DHT22;12636;50.852;5.676;2024-03-17T05:46:47;6.00;99.90
24472;DHT22;12636;50.852;5.676;2024-03-17T05:49:18;6.10;99.90
24472;DHT22;12636;50.852;5.676;2024-03-17T05:51:46;6.10;99.90
24472;DHT22;12636;50.852;5.676;2024-03-17T05:54:13;6.10;99.90
24472;DHT22;12636;50.852;5.676;2024-03-17T05:56:40;5.90;99.90
24472;DHT22;12636;50.852;5.676;2024-03-17T05:59:07;6.00;99.90
24472;DHT22;12636;50.852;5.676;2024-03-17T06:01:34;6.00;99.90
24472;DHT22;12636;50.852;5.676;2024-03-17T06:04:01;6.20;99.90
24472;DHT22;12636;50.852;5.676;2024-03-17T06:06:31;6.10;99.90
24472;DHT22;12636;50.852;5.676;2024-03-17T06:08:58;6.10;99.90
24472;DHT22;12636;50.852;5.676;2024-03-17T06:11:25;6.20;99.90
24472;DHT22;12636;50.852;5.676;2024-03-17T06:13:52;6.30;99.90
24472;DHT22;12636;50.852;5.676;2024-03-17T06:16:19;6.40;99.90
24472;DHT22;12636;50.852;5.676;2024-03-17T06:18:46;6.50;99.90
24472;DHT22;12636;50.852;5.676;2024-03-17T06:21:16;6.50;99.90
24472;DHT22;12636;50.852;5.676;2024-03-17T06:23:44;6.60;99.90
24472;DHT22;12636;50.852;5.676;2024-03-17T06:26:12;6.70;99.90
24472;DHT22;12636;50.852;5.676;2024-03-17T06:28:39;6.90;99.90
24472;DHT22;12636;50.852;5.676;2024-03-17T06:31:08;7.20;99.90
24472;DHT22;12636;50.852;5.676;2024-03-17T06:33:35;7.20;99.90
24472;DHT22;12636;50.852;5.676;2024-03-17T06:36:02;7.30;99.90
24472;DHT22;12636;50.852;5.676;2024-03-17T06:38:30;7.40;99.90
24472;DHT22;12636;50.852;5.676;2024-03-17T06:40:58;7.80;99.90
24472;DHT22;12636;50.852;5.676;2024-03-17T06:43:25;8.20;35.40
24472;DHT22;12636;50.852;5.676;2024-03-17T06:45:55;8.50;1.00
24472;DHT22;12636;50.852;5.676;2024-03-17T06:48:23;8.90;1.00
24472;DHT22;12636;50.852;5.676;2024-03-17T06:50:50;9.40;1.00
24472;DHT22;12636;50.852;5.676;2024-03-17T06:53:19;9.40;1.00
24472;DHT22;12636;50.852;5.676;2024-03-17T06:55:53;9.40;1.00
24472;DHT22;12636;50.852;5.676;2024-03-17T06:58:22;9.00;1.00
24472;DHT22;12636;50.852;5.676;2024-03-17T07:00:53;8.90;99.90
24472;DHT22;12636;50.852;5.676;2024-03-17T07:03:20;8.70;99.90
24472;DHT22;12636;50.852;5.676;2024-03-17T07:05:50;8.60;1.00
24472;DHT22;12636;50.852;5.676;2024-03-17T07:08:17;8.60;99.90
24472;DHT22;12636;50.852;5.676;2024-03-17T07:10:54;8.60;99.90
24472;DHT22;12636;50.852;5.676;2024-03-17T07:13:22;8.60;99.90
24472;DHT22;12636;50.852;5.676;2024-03-17T07:15:49;8.60;99.90
24472;DHT22;12636;50.852;5.676;2024-03-17T07:18:16;8.60;1.00
24472;DHT22;12636;50.852;5.676;2024-03-17T07:20:42;8.60;99.90
24472;DHT22;12636;50.852;5.676;2024-03-17T07:23:08;8.80;99.90
24472;DHT22;12636;50.852;5.676;2024-03-17T07:25:36;8.80;99.90
24472;DHT22;12636;50.852;5.676;2024-03-17T07:28:03;8.90;99.90
24472;DHT22;12636;50.852;5.676;2024-03-17T07:30:31;9.00;99.90
24472;DHT22;12636;50.852;5.676;2024-03-17T07:32:58;9.20;99.90
24472;DHT22;12636;50.852;5.676;2024-03-17T07:35:25;9.40;1.00
24472;DHT22;12636;50.852;5.676;2024-03-17T07:37:52;9.50;99.90
24472;DHT22;12636;50.852;5.676;2024-03-17T07:40:19;9.60;99.90
24472;DHT22;12636;50.852;5.676;2024-03-17T07:42:46;9.60;1.00
24472;DHT22;12636;50.852;5.676;2024-03-17T07:45:12;9.70;99.90
24472;DHT22;12636;50.852;5.676;2024-03-17T07:47:41;9.70;1.00
24472;DHT22;12636;50.852;5.676;2024-03-17T07:50:08;9.70;1.00
24472;DHT22;12636;50.852;5.676;2024-03-17T07:52:35;9.80;1.00
24472;DHT22;12636;50.852;5.676;2024-03-17T07:55:02;9.80;99.90
24472;DHT22;12636;50.852;5.676;2024-03-17T07:57:28;10.10;1.00
24472;DHT22;12636;50.852;5.676;2024-03-17T07:59:55;10.30;99.90
24472;DHT22;12636;50.852;5.676;2024-03-17T08:02:23;10.80;1.00
24472;DHT22;12636;50.852;5.676;2024-03-17T08:04:51;11.00;99.90
24472;DHT22;12636;50.852;5.676;2024-03-17T08:07:18;11.20;99.90
24472;DHT22;12636;50.852;5.676;2024-03-17T08:09:45;10.70;99.90
24472;DHT22;12636;50.852;5.676;2024-03-17T08:12:12;10.60;1.00
24472;DHT22;12636;50.852;5.676;2024-03-17T08:14:38;10.70;1.00
24472;DHT22;12636;50.852;5.676;2024-03-17T08:17:06;11.10;99.90
24472;DHT22;12636;50.852;5.676;2024-03-17T08:19:33;11.40;1.00
24472;DHT22;12636;50.852;5.676;2024-03-17T08:22:01;11.40;1.00
24472;DHT22;12636;50.852;5.676;2024-03-17T08:24:28;11.70;1.00
24472;DHT22;12636;50.852;5.676;2024-03-17T08:26:55;11.50;1.00
24472;DHT22;12636;50.852;5.676;2024-03-17T08:29:21;11.20;1.00
24472;DHT22;12636;50.852;5.676;2024-03-17T08:31:48;11.00;1.00
24472;DHT22;12636;50.852;5.676;2024-03-17T08:34:15;10.90;1.00
24472;DHT22;12636;50.852;5.676;2024-03-17T08:36:42;11.00;1.00
24472;DHT22;12636;50.852;5.676;2024-03-17T08:39:10;11.00;1.00
24472;DHT22;12636;50.852;5.676;2024-03-17T08:41:39;10.90;1.00
24472;DHT22;12636;50.852;5.676;2024-03-17T08:44:06;10.90;1.00
24472;DHT22;12636;50.852;5.676;2024-03-17T08:46:33;10.90;1.00
24472;DHT22;12636;50.852;5.676;2024-03-17T08:49:00;11.10;1.00
24472;DHT22;12636;50.852;5.676;2024-03-17T08:51:26;11.10;1.00
24472;DHT22;12636;50.852;5.676;2024-03-17T08:53:53;11.20;1.00
24472;DHT22;12636;50.852;5.676;2024-03-17T08:56:23;11.00;1.00
24472;DHT22;12636;50.852;5.676;2024-03-17T08:58:50;11.20;1.00
24472;DHT22;12636;50.852;5.676;2024-03-17T09:01:17;11.50;1.00
24472;DHT22;12636;50.852;5.676;2024-03-17T09:03:44;11.90;99.90
24472;DHT22;12636;50.852;5.676;2024-03-17T09:06:13;12.30;99.90
24472;DHT22;12636;50.852;5.676;2024-03-17T09:08:41;12.40;1.00
24472;DHT22;12636;50.852;5.676;2024-03-17T09:11:09;12.70;1.00
24472;DHT22;12636;50.852;5.676;2024-03-17T09:13:39;12.60;1.00
24472;DHT22;12636;50.852;5.676;2024-03-17T09:16:06;12.60;99.90
24472;DHT22;12636;50.852;5.676;2024-03-17T09:18:36;12.70;1.00
24472;DHT22;12636;50.852;5.676;2024-03-17T09:21:04;12.70;99.90
24472;DHT22;12636;50.852;5.676;2024-03-17T09:23:33;12.80;99.90
24472;DHT22;12636;50.852;5.676;2024-03-17T09:26:01;12.70;99.90
24472;DHT22;12636;50.852;5.676;2024-03-17T09:28:28;12.60;99.90
24472;DHT22;12636;50.852;5.676;2024-03-17T09:30:57;12.50;1.00
24472;DHT22;12636;50.852;5.676;2024-03-17T09:33:24;12.50;1.00
24472;DHT22;12636;50.852;5.676;2024-03-17T09:35:55;12.60;99.90
24472;DHT22;12636;50.852;5.676;2024-03-17T09:38:22;12.90;99.90
24472;DHT22;12636;50.852;5.676;2024-03-17T09:40:49;12.90;1.00
24472;DHT22;12636;50.852;5.676;2024-03-17T09:43:18;13.30;1.00
24472;DHT22;12636;50.852;5.676;2024-03-17T09:45:45;13.30;1.00
24472;DHT22;12636;50.852;5.676;2024-03-17T09:48:15;13.60;52.60
24472;DHT22;12636;50.852;5.676;2024-03-17T09:50:44;13.50;1.00
24472;DHT22;12636;50.852;5.676;2024-03-17T09:53:15;13.60;99.90
24472;DHT22;12636;50.852;5.676;2024-03-17T09:55:43;13.60;99.90
24472;DHT22;12636;50.852;5.676;2024-03-17T09:58:11;13.80;1.00
24472;DHT22;12636;50.852;5.676;2024-03-17T10:00:41;13.60;1.00
24472;DHT22;12636;50.852;5.676;2024-03-17T10:03:08;13.50;99.90
24472;DHT22;12636;50.852;5.676;2024-03-17T10:05:36;13.60;99.90
24472;DHT22;12636;50.852;5.676;2024-03-17T10:08:03;13.40;99.90
24472;DHT22;12636;50.852;5.676;2024-03-17T10:10:30;13.80;1.00
24472;DHT22;12636;50.852;5.676;2024-03-17T10:12:57;14.10;35.50
24472;DHT22;12636;50.852;5.676;2024-03-17T10:15:24;14.00;1.00
24472;DHT22;12636;50.852;5.676;2024-03-17T10:17:51;14.10;1.00
24472;DHT22;12636;50.852;5.676;2024-03-17T10:20:18;13.80;1.00
24472;DHT22;12636;50.852;5.676;2024-03-17T10:23:03;13.70;1.00
24472;DHT22;12636;50.852;5.676;2024-03-17T10:25:31;13.60;99.90
24472;DHT22;12636;50.852;5.676;2024-03-17T10:27:58;13.50;10.60
24472;DHT22;12636;50.852;5.676;2024-03-17T10:30:26;13.40;6.00
24472;DHT22;12636;50.852;5.676;2024-03-17T10:32:56;13.70;99.90
24472;DHT22;12636;50.852;5.676;2024-03-17T10:35:29;13.80;99.90
24472;DHT22;12636;50.852;5.676;2024-03-17T10:37:57;13.90;1.00
24472;DHT22;12636;50.852;5.676;2024-03-17T10:40:26;14.00;99.90
24472;DHT22;12636;50.852;5.676;2024-03-17T10:42:54;14.00;99.90
24472;DHT22;12636;50.852;5.676;2024-03-17T10:45:21;13.70;99.90
24472;DHT22;12636;50.852;5.676;2024-03-17T10:47:48;13.60;99.90
24472;DHT22;12636;50.852;5.676;2024-03-17T10:50:17;13.80;99.90
24472;DHT22;12636;50.852;5.676;2024-03-17T10:52:44;13.90;99.90
24472;DHT22;12636;50.852;5.676;2024-03-17T10:55:20;13.80;99.90
24472;DHT22;12636;50.852;5.676;2024-03-17T10:57:49;13.60;73.70
24472;DHT22;12636;50.852;5.676;2024-03-17T11:00:16;13.40;63.00
24472;DHT22;12636;50.852;5.676;2024-03-17T11:02:44;13.50;1.00
24472;DHT22;12636;50.852;5.676;2024-03-17T11:05:14;13.60;1.00
24472;DHT22;12636;50.852;5.676;2024-03-17T11:07:41;13.60;75.10
24472;DHT22;12636;50.852;5.676;2024-03-17T11:10:14;13.70;1.00
24472;DHT22;12636;50.852;5.676;2024-03-17T11:12:42;13.60;99.90
24472;DHT22;12636;50.852;5.676;2024-03-17T11:20:44;14.00;3.40
24472;DHT22;12636;50.852;5.676;2024-03-17T11:23:25;14.10;99.90
24472;DHT22;12636;50.852;5.676;2024-03-17T11:25:52;14.30;99.90
24472;DHT22;12636;50.852;5.676;2024-03-17T11:31:01;14.10;1.00
24472;DHT22;12636;50.852;5.676;2024-03-17T11:33:48;14.00;37.30
24472;DHT22;12636;50.852;5.676;2024-03-17T11:36:35;14.10;1.00
24472;DHT22;12636;50.852;5.676;2024-03-17T11:39:04;14.20;62.20
24472;DHT22;12636;50.852;5.676;2024-03-17T11:41:38;14.30;1.00
24472;DHT22;12636;50.852;5.676;2024-03-17T11:44:15;14.30;1.00
24472;DHT22;12636;50.852;5.676;2024-03-17T11:46:43;14.30;1.00
24472;DHT22;12636;50.852;5.676;2024-03-17T11:49:16;14.80;1.00
24472;DHT22;12636;50.852;5.676;2024-03-17T11:51:43;15.00;1.00
24472;DHT22;12636;50.852;5.676;2024-03-17T11:54:13;15.10;1.00
24472;DHT22;12636;50.852;5.676;2024-03-17T11:56:40;15.10;99.90
24472;DHT22;12636;50.852;5.676;2024-03-17T11:59:07;14.60;99.90
24472;DHT22;12636;50.852;5.676;2024-03-17T12:01:34;14.50;1.00
24472;DHT22;12636;50.852;5.676;2024-03-17T12:04:01;14.50;88.40
24472;DHT22;12636;50.852;5.676;2024-03-17T12:06:31;14.40;1.00
24472;DHT22;12636;50.852;5.676;2024-03-17T12:09:18;14.40;1.00
24472;DHT22;12636;50.852;5.676;2024-03-17T12:11:46;14.50;1.00
24472;DHT22;12636;50.852;5.676;2024-03-17T12:14:16;14.50;1.00
24472;DHT22;12636;50.852;5.676;2024-03-17T12:16:49;14.50;1.00
24472;DHT22;12636;50.852;5.676;2024-03-17T12:19:17;14.50;26.40
24472;DHT22;12636;50.852;5.676;2024-03-17T12:21:43;14.50;99.90
24472;DHT22;12636;50.852;5.676;2024-03-17T12:24:13;14.50;99.90
24472;DHT22;12636;50.852;5.676;2024-03-17T12:26:41;14.70;1.00
24472;DHT22;12636;50.852;5.676;2024-03-17T12:29:24;14.90;99.90
24472;DHT22;12636;50.852;5.676;2024-03-17T12:31:51;15.00;99.90
24472;DHT22;12636;50.852;5.676;2024-03-17T12:34:18;15.40;1.00
24472;DHT22;12636;50.852;5.676;2024-03-17T12:36:44;15.80;99.90
24472;DHT22;12636;50.852;5.676;2024-03-17T12:39:15;16.00;1.00
24472;DHT22;12636;50.852;5.676;2024-03-17T12:41:45;16.10;1.00
24472;DHT22;12636;50.852;5.676;2024-03-17T12:44:21;16.20;55.60
24472;DHT22;12636;50.852;5.676;2024-03-17T12:46:47;16.60;1.00
24472;DHT22;12636;50.852;5.676;2024-03-17T12:49:14;17.40;99.90
24472;DHT22;12636;50.852;5.676;2024-03-17T12:51:41;18.20;99.90
24472;DHT22;12636;50.852;5.676;2024-03-17T12:54:14;18.30;1.00
24472;DHT22;12636;50.852;5.676;2024-03-17T12:56:40;18.10;1.00
24472;DHT22;12636;50.852;5.676;2024-03-17T12:59:26;18.00;1.00
24472;DHT22;12636;50.852;5.676;2024-03-17T13:02:20;17.50;1.00
24472;DHT22;12636;50.852;5.676;2024-03-17T13:07:31;17.80;1.00
24472;DHT22;12636;50.852;5.676;2024-03-17T13:09:58;17.10;1.00
24472;DHT22;12636;50.852;5.676;2024-03-17T13:12:25;17.20;99.90
24472;DHT22;12636;50.852;5.676;2024-03-17T13:14:54;17.80;1.00
24472;DHT22;12636;50.852;5.676;2024-03-17T13:17:23;17.90;1.00
24472;DHT22;12636;50.852;5.676;2024-03-17T13:19:50;17.40;1.00
24472;DHT22;12636;50.852;5.676;2024-03-17T13:22:17;16.80;1.00
24472;DHT22;12636;50.852;5.676;2024-03-17T13:24:43;16.60;99.90
24472;DHT22;12636;50.852;5.676;2024-03-17T13:27:10;16.60;99.90
24472;DHT22;12636;50.852;5.676;2024-03-17T13:29:39;16.40;99.90
24472;DHT22;12636;50.852;5.676;2024-03-17T13:32:10;16.20;99.90
24472;DHT22;12636;50.852;5.676;2024-03-17T13:34:37;16.20;99.90
24472;DHT22;12636;50.852;5.676;2024-03-17T13:37:05;16.50;99.90
24472;DHT22;12636;50.852;5.676;2024-03-17T13:39:32;16.70;99.90
24472;DHT22;12636;50.852;5.676;2024-03-17T13:42:00;17.10;99.90
24472;DHT22;12636;50.852;5.676;2024-03-17T13:44:29;17.20;99.90
24472;DHT22;12636;50.852;5.676;2024-03-17T13:46:56;17.60;99.90
24472;DHT22;12636;50.852;5.676;2024-03-17T13:49:24;16.40;99.90
24472;DHT22;12636;50.852;5.676;2024-03-17T13:51:52;15.60;93.50
24472;DHT22;12636;50.852;5.676;2024-03-17T13:54:19;15.70;75.80
24472;DHT22;12636;50.852;5.676;2024-03-17T13:56:47;15.90;99.90
24472;DHT22;12636;50.852;5.676;2024-03-17T13:59:14;16.10;1.00
24472;DHT22;12636;50.852;5.676;2024-03-17T14:01:41;16.40;93.40
24472;DHT22;12636;50.852;5.676;2024-03-17T14:04:11;16.30;1.80
24472;DHT22;12636;50.852;5.676;2024-03-17T14:06:41;16.30;1.00
24472;DHT22;12636;50.852;5.676;2024-03-17T14:09:07;16.30;21.10
24472;DHT22;12636;50.852;5.676;2024-03-17T14:11:36;16.30;46.60
24472;DHT22;12636;50.852;5.676;2024-03-17T14:14:04;16.80;85.70
24472;DHT22;12636;50.852;5.676;2024-03-17T14:16:31;16.80;93.20
24472;DHT22;12636;50.852;5.676;2024-03-17T14:18:58;16.90;99.90
24472;DHT22;12636;50.852;5.676;2024-03-17T14:21:26;16.30;99.90
24472;DHT22;12636;50.852;5.676;2024-03-17T14:23:54;15.80;99.90
24472;DHT22;12636;50.852;5.676;2024-03-17T14:26:21;15.40;99.90
24472;DHT22;12636;50.852;5.676;2024-03-17T14:28:48;15.30;18.40
24472;DHT22;12636;50.852;5.676;2024-03-17T14:31:15;15.50;41.20
24472;DHT22;12636;50.852;5.676;2024-03-17T14:33:42;15.30;1.00
24472;DHT22;12636;50.852;5.676;2024-03-17T14:36:10;15.30;1.00
24472;DHT22;12636;50.852;5.676;2024-03-17T14:38:37;15.40;1.00
24472;DHT22;12636;50.852;5.676;2024-03-17T14:41:05;15.60;1.00
24472;DHT22;12636;50.852;5.676;2024-03-17T14:43:32;15.80;1.00
24472;DHT22;12636;50.852;5.676;2024-03-17T14:46:03;15.50;1.00
24472;DHT22;12636;50.852;5.676;2024-03-17T14:48:30;15.30;1.00
24472;DHT22;12636;50.852;5.676;2024-03-17T14:50:57;15.30;99.90
24472;DHT22;12636;50.852;5.676;2024-03-17T14:53:24;15.40;99.90
24472;DHT22;12636;50.852;5.676;2024-03-17T14:55:51;15.20;99.90
24472;DHT22;12636;50.852;5.676;2024-03-17T14:58:19;15.30;99.90
24472;DHT22;12636;50.852;5.676;2024-03-17T15:00:46;15.50;99.90
24472;DHT22;12636;50.852;5.676;2024-03-17T15:03:14;15.50;99.90
24472;DHT22;12636;50.852;5.676;2024-03-17T15:05:41;15.50;99.90
24472;DHT22;12636;50.852;5.676;2024-03-17T15:08:08;15.50;99.90
24472;DHT22;12636;50.852;5.676;2024-03-17T15:10:35;15.30;99.90
24472;DHT22;12636;50.852;5.676;2024-03-17T15:13:02;15.20;92.50
24472;DHT22;12636;50.852;5.676;2024-03-17T15:15:30;15.10;97.70
24472;DHT22;12636;50.852;5.676;2024-03-17T15:17:57;15.10;99.90
24472;DHT22;12636;50.852;5.676;2024-03-17T15:20:25;15.10;99.90
24472;DHT22;12636;50.852;5.676;2024-03-17T15:22:51;15.20;37.30
24472;DHT22;12636;50.852;5.676;2024-03-17T15:25:19;15.30;99.90
24472;DHT22;12636;50.852;5.676;2024-03-17T15:27:49;15.50;99.90
24472;DHT22;12636;50.852;5.676;2024-03-17T15:30:17;15.60;99.90
24472;DHT22;12636;50.852;5.676;2024-03-17T15:32:46;16.40;99.90
24472;DHT22;12636;50.852;5.676;2024-03-17T15:35:13;16.40;99.90
24472;DHT22;12636;50.852;5.676;2024-03-17T15:37:40;15.90;99.90
24472;DHT22;12636;50.852;5.676;2024-03-17T15:40:08;15.30;99.90
24472;DHT22;12636;50.852;5.676;2024-03-17T15:42:42;15.20;97.30
24472;DHT22;12636;50.852;5.676;2024-03-17T15:45:09;15.10;9.40
24472;DHT22;12636;50.852;5.676;2024-03-17T15:47:36;14.90;6.90
24472;DHT22;12636;50.852;5.676;2024-03-17T15:50:05;14.90;1.00
24472;DHT22;12636;50.852;5.676;2024-03-17T15:52:32;14.90;11.00
24472;DHT22;12636;50.852;5.676;2024-03-17T15:55:00;14.90;1.00
24472;DHT22;12636;50.852;5.676;2024-03-17T15:57:28;15.00;1.00